Time;durP1;ratioP1;P1;durP2;ratioP2;P2;SDS_P1;SDS_P2;PMS_P1;PMS_P2;Temp;Humidity;BMP_temperature;BMP_pressure;BME280_temperature;BME280_humidity;BME280_pressure;Samples;Min_cycle;Max_cycle;Signal;HPM_P1;HPM_P2
2022/12/14 00:00:31;;;;;;;30.83;21.52;;;;;;;;;;5114354;28;20497;-78
2022/12/14 00:02:57;;;;;;;28.67;20.65;;;;;;;;;;5133106;28;20027;-77
2022/12/14 00:05:23;;;;;;;35.90;25.60;;;;;;;;;;5114294;28;20027;-77
2022/12/14 00:07:49;;;;;;;42.50;26.35;;;;;;;;;;5114773;28;20037;-77
2022/12/14 00:10:15;;;;;;;36.15;24.95;;;;;;;;;;5133109;28;20140;-77
2022/12/14 00:12:42;;;;;;;36.60;23.70;;;;;;;;;;5132824;28;20051;-77
2022/12/14 00:15:08;;;;;;;33.45;22.15;;;;;;;;;;5132879;28;20062;-78
2022/12/14 00:17:34;;;;;;;26.60;18.88;;;;;;;;;;5133031;28;20024;-77
2022/12/14 00:20:00;;;;;;;26.17;18.15;;;;;;;;;;5133263;28;20444;-78
2022/12/14 00:22:26;;;;;;;26.55;18.58;;;;;;;;;;5132768;28;20389;-77
2022/12/14 00:24:53;;;;;;;26.27;17.92;;;;;;;;;;5131928;28;20145;-77
2022/12/14 00:27:19;;;;;;;25.80;16.48;;;;;;;;;;5131618;28;20061;-77
2022/12/14 00:29:45;;;;;;;17.90;12.85;;;;;;;;;;5131862;28;20406;-77
2022/12/14 00:32:11;;;;;;;19.15;14.60;;;;;;;;;;5131931;28;20114;-77
2022/12/14 00:34:37;;;;;;;19.60;13.38;;;;;;;;;;5131664;28;20098;-78
2022/12/14 00:37:03;;;;;;;19.58;14.18;;;;;;;;;;5131772;28;20098;-78
2022/12/14 00:39:30;;;;;;;20.23;14.27;;;;;;;;;;5131834;28;20094;-77
2022/12/14 00:41:56;;;;;;;20.15;15.18;;;;;;;;;;5133470;27;20103;-77
2022/12/14 00:44:22;;;;;;;18.55;13.43;;;;;;;;;;5135594;27;20048;-77
2022/12/14 00:46:48;;;;;;;19.52;14.27;;;;;;;;;;5132587;27;20389;-77
2022/12/14 00:49:14;;;;;;;15.60;12.68;;;;;;;;;;5135342;27;20019;-77
2022/12/14 00:51:40;;;;;;;14.50;11.43;;;;;;;;;;5116855;27;20043;-77
2022/12/14 00:54:07;;;;;;;16.08;12.10;;;;;;;;;;5116954;27;20163;-77
2022/12/14 00:56:33;;;;;;;17.52;12.18;;;;;;;;;;5135587;27;20080;-77
2022/12/14 00:58:59;;;;;;;18.73;12.77;;;;;;;;;;5135814;27;20035;-77
2022/12/14 01:01:25;;;;;;;15.70;12.05;;;;;;;;;;5136045;27;20023;-77
2022/12/14 01:04:15;;;;;;;16.52;13.23;;;;;;;;;;5135682;27;20031;-77
2022/12/14 01:06:37;;;;;;;21.50;14.57;;;;;;;;;;5135320;27;20458;-77
2022/12/14 01:09:03;;;;;;;40.35;23.00;;;;;;;;;;5117400;27;20023;-77
2022/12/14 01:11:29;;;;;;;24.65;17.15;;;;;;;;;;5135708;27;20148;-77
2022/12/14 01:13:55;;;;;;;17.23;13.15;;;;;;;;;;5135514;27;20035;-77
2022/12/14 01:16:22;;;;;;;18.35;13.23;;;;;;;;;;5134712;27;20496;-78
2022/12/14 01:18:48;;;;;;;19.52;13.75;;;;;;;;;;5135497;27;20102;-78
2022/12/14 01:21:15;;;;;;;17.88;12.98;;;;;;;;;;5135705;27;20034;-78
2022/12/14 01:23:42;;;;;;;16.77;12.30;;;;;;;;;;5135448;27;20035;-78
2022/12/14 01:26:09;;;;;;;18.95;13.70;;;;;;;;;;5135608;27;20035;-78
2022/12/14 01:28:35;;;;;;;17.00;12.82;;;;;;;;;;5116892;27;20054;-79
2022/12/14 01:31:09;;;;;;;22.48;14.75;;;;;;;;;;5117310;27;20035;-78
2022/12/14 01:33:35;;;;;;;21.42;14.73;;;;;;;;;;5135399;27;20076;-78
2022/12/14 01:36:09;;;;;;;23.02;15.18;;;;;;;;;;5117075;27;20031;-78
2022/12/14 01:38:35;;;;;;;24.55;16.13;;;;;;;;;;5135104;27;20031;-78
2022/12/14 01:41:01;;;;;;;22.27;14.43;;;;;;;;;;5135592;27;20050;-78
2022/12/14 01:43:46;;;;;;;19.05;14.82;;;;;;;;;;5135058;27;20098;-78
2022/12/14 01:46:13;;;;;;;20.70;14.63;;;;;;;;;;5140512;27;20023;-79
2022/12/14 01:48:39;;;;;;;24.10;16.35;;;;;;;;;;5135253;27;20046;-78
2022/12/14 01:51:05;;;;;;;23.52;15.50;;;;;;;;;;5135288;27;20027;-78
2022/12/14 01:53:31;;;;;;;21.92;16.10;;;;;;;;;;5134272;27;20393;-78
2022/12/14 01:55:57;;;;;;;19.23;15.25;;;;;;;;;;5135154;27;20047;-77
2022/12/14 01:58:24;;;;;;;20.63;13.88;;;;;;;;;;5134767;27;20030;-78
2022/12/14 02:00:53;;;;;;;19.95;15.10;;;;;;;;;;5135066;27;20023;-78
2022/12/14 02:03:21;;;;;;;18.05;14.30;;;;;;;;;;5134641;27;20028;-78
2022/12/14 02:05:50;;;;;;;19.92;15.05;;;;;;;;;;5134669;27;20023;-77
2022/12/14 02:08:17;;;;;;;17.83;13.45;;;;;;;;;;5134554;27;20042;-78
2022/12/14 02:10:43;;;;;;;20.10;14.80;;;;;;;;;;5116282;27;20023;-78
2022/12/14 02:13:22;;;;;;;21.02;13.85;;;;;;;;;;5134505;27;20039;-79
2022/12/14 02:15:48;;;;;;;19.17;14.07;;;;;;;;;;5134594;27;20058;-78
2022/12/14 02:18:17;;;;;;;22.58;16.40;;;;;;;;;;5134449;27;20019;-78
2022/12/14 02:21:02;;;;;;;24.73;15.73;;;;;;;;;;5134577;27;20027;-78
2022/12/14 02:23:48;;;;;;;24.67;16.70;;;;;;;;;;5134533;27;20019;-78
2022/12/14 02:26:26;;;;;;;21.75;14.90;;;;;;;;;;5134534;27;20041;-78
2022/12/14 02:29:11;;;;;;;20.60;14.70;;;;;;;;;;5134705;27;20465;-78
2022/12/14 02:31:43;;;;;;;25.30;17.13;;;;;;;;;;5115853;27;20118;-78
2022/12/14 02:34:09;;;;;;;31.52;20.48;;;;;;;;;;5134217;27;20023;-78
2022/12/14 02:36:41;;;;;;;27.90;18.17;;;;;;;;;;5134325;27;20155;-78
2022/12/14 02:39:07;;;;;;;21.63;15.30;;;;;;;;;;5134062;27;20034;-78
2022/12/14 02:41:40;;;;;;;19.60;14.05;;;;;;;;;;5134337;27;20023;-78
2022/12/14 02:44:24;;;;;;;21.20;14.48;;;;;;;;;;5134108;27;20060;-78
2022/12/14 02:46:50;;;;;;;;;;;;;;;;;;5134306;27;20031;-78
2022/12/14 02:49:31;;;;;;;20.63;14.57;;;;;;;;;;5134151;27;19927;-78
2022/12/14 02:52:05;;;;;;;22.25;15.75;;;;;;;;;;5129461;27;20031;-78
2022/12/14 02:54:31;;;;;;;;;;;;;;;;;;5134767;27;20026;-78
2022/12/14 02:57:04;;;;;;;20.77;14.65;;;;;;;;;;5133929;27;19982;-78
2022/12/14 02:59:32;;;;;;;21.70;15.70;;;;;;;;;;5133576;27;20394;-78
2022/12/14 03:02:00;;;;;;;23.92;16.38;;;;;;;;;;5133826;27;20027;-78
2022/12/14 03:04:26;;;;;;;21.60;15.38;;;;;;;;;;5132813;27;20561;-79
2022/12/14 03:06:56;;;;;;;22.40;17.00;;;;;;;;;;5115295;27;20031;-78
2022/12/14 03:09:23;;;;;;;30.92;20.40;;;;;;;;;;5133632;27;20114;-78
2022/12/14 03:11:55;;;;;;;26.58;18.55;;;;;;;;;;5133622;27;20049;-78
2022/12/14 03:14:26;;;;;;;25.45;19.00;;;;;;;;;;5133398;27;20047;-78
2022/12/14 03:16:52;;;;;;;27.48;17.75;;;;;;;;;;5133625;27;20076;-78
2022/12/14 03:19:38;;;;;;;22.08;14.90;;;;;;;;;;5133346;27;20095;-78
2022/12/14 03:22:09;;;;;;;22.20;14.10;;;;;;;;;;5114957;28;20023;-78
2022/12/14 03:24:48;;;;;;;17.73;13.68;;;;;;;;;;5133585;27;20134;-78
2022/12/14 03:27:33;;;;;;;16.88;12.70;;;;;;;;;;5133505;27;20031;-78
2022/12/14 03:30:01;;;;;;;16.95;12.80;;;;;;;;;;5133672;28;20481;-78
2022/12/14 03:32:29;;;;;;;20.88;13.35;;;;;;;;;;5133562;28;20023;-78
2022/12/14 03:35:14;;;;;;;21.17;16.70;;;;;;;;;;5133332;28;20355;-78
2022/12/14 03:37:45;;;;;;;21.02;14.15;;;;;;;;;;5133222;28;20562;-78
2022/12/14 03:40:13;;;;;;;20.77;15.05;;;;;;;;;;5133467;28;20019;-78
2022/12/14 03:43:08;;;;;;;22.13;15.98;;;;;;;;;;5133460;28;20095;-78
2022/12/14 03:45:50;;;;;;;21.83;15.90;;;;;;;;;;5111649;28;20123;-78
2022/12/14 03:48:34;;;;;;;20.73;15.75;;;;;;;;;;5133938;28;21079;-78
2022/12/14 03:51:27;;;;;;;20.70;15.02;;;;;;;;;;5133402;28;20492;-78
2022/12/14 03:54:05;;;;;;;19.15;14.05;;;;;;;;;;5128963;28;20039;-78
2022/12/14 03:56:37;;;;;;;23.90;15.02;;;;;;;;;;5133443;28;20031;-78
2022/12/14 03:59:11;;;;;;;23.88;16.25;;;;;;;;;;5139051;28;20043;-78
2022/12/14 04:01:53;;;;;;;26.13;16.80;;;;;;;;;;5133468;28;20046;-78
2022/12/14 04:04:25;;;;;;;22.10;16.20;;;;;;;;;;5133742;28;20099;-78
2022/12/14 04:18:55;;;;;;;25.38;17.73;;;;;;;;;;5119091;28;20050;-78
2022/12/14 04:21:28;;;;;;;25.15;16.98;;;;;;;;;;5137225;27;20492;-78
2022/12/14 04:27:10;;;;;;;26.25;17.75;;;;;;;;;;5136751;27;20442;-78
2022/12/14 04:32:40;;;;;;;24.30;15.85;;;;;;;;;;5136805;27;20039;-78
2022/12/14 04:35:06;;;;;;;25.58;16.85;;;;;;;;;;5136539;27;20466;-79
2022/12/14 04:37:34;;;;;;;31.80;21.30;;;;;;;;;;5136293;27;20027;-78
2022/12/14 04:40:10;;;;;;;37.20;22.23;;;;;;;;;;5136612;27;20022;-78
2022/12/14 04:42:41;;;;;;;37.92;25.10;;;;;;;;;;5135969;27;20024;-78
2022/12/14 04:45:19;;;;;;;36.95;22.88;;;;;;;;;;5136031;27;20055;-78
2022/12/14 04:47:50;;;;;;;36.00;24.27;;;;;;;;;;5136532;27;20035;-80
2022/12/14 04:50:25;;;;;;;33.90;22.35;;;;;;;;;;5136259;27;20031;-80
2022/12/14 04:52:51;;;;;;;;;;;;;;;;;;5136781;27;20077;-80
2022/12/14 04:55:20;;;;;;;28.98;18.58;;;;;;;;;;5136303;27;20382;-80
2022/12/14 04:57:49;;;;;;;26.30;17.27;;;;;;;;;;5136354;27;20027;-80
2022/12/14 05:00:15;;;;;;;27.02;17.70;;;;;;;;;;5115767;27;20020;-80
2022/12/14 05:02:59;;;;;;;22.63;17.88;;;;;;;;;;5135554;27;20390;-80
2022/12/14 05:05:44;;;;;;;28.55;19.50;;;;;;;;;;5117642;27;20446;-80
2022/12/14 05:08:11;;;;;;;;;;;;;;;;;;5136243;27;20039;-80
2022/12/14 05:10:57;;;;;;;28.45;19.20;;;;;;;;;;5134770;27;19935;-80
2022/12/14 05:13:25;;;;;;;30.75;20.48;;;;;;;;;;5100299;27;20038;-80
2022/12/14 05:15:53;;;;;;;30.05;19.95;;;;;;;;;;5144406;27;20513;-80
2022/12/14 05:18:20;;;;;;;39.10;27.52;;;;;;;;;;5143108;27;20023;-80
2022/12/14 05:20:46;;;;;;;37.40;26.00;;;;;;;;;;5156339;27;20384;-80
2022/12/14 05:23:12;;;;;;;30.95;21.63;;;;;;;;;;5156116;27;20087;-80
2022/12/14 05:25:39;;;;;;;30.27;20.95;;;;;;;;;;5155525;27;20101;-80
2022/12/14 05:28:05;;;;;;;52.58;29.77;;;;;;;;;;5155291;27;20031;-80
2022/12/14 05:30:31;;;;;;;40.08;28.85;;;;;;;;;;5155896;27;20109;-78
2022/12/14 05:32:58;;;;;;;50.00;35.50;;;;;;;;;;5137221;27;20113;-79
2022/12/14 05:35:24;;;;;;;34.97;23.58;;;;;;;;;;5155926;27;20071;-80
2022/12/14 05:37:50;;;;;;;34.22;23.73;;;;;;;;;;5155711;27;20511;-78
2022/12/14 05:40:16;;;;;;;29.27;20.90;;;;;;;;;;5144699;27;20045;-78
2022/12/14 05:42:42;;;;;;;28.05;19.77;;;;;;;;;;5134725;27;20031;-78
2022/12/14 05:45:10;;;;;;;34.97;23.15;;;;;;;;;;5134701;27;20033;-80
2022/12/14 05:47:37;;;;;;;34.28;23.15;;;;;;;;;;5133605;27;20110;-81
2022/12/14 05:50:03;;;;;;;37.38;25.58;;;;;;;;;;5134971;27;20023;-79
2022/12/14 05:52:29;;;;;;;36.63;24.80;;;;;;;;;;5134858;27;20023;-80
2022/12/14 05:54:58;;;;;;;40.22;27.40;;;;;;;;;;5135086;27;20027;-81
2022/12/14 05:57:24;;;;;;;39.17;25.80;;;;;;;;;;5132817;27;20026;-80
2022/12/14 05:59:50;;;;;;;40.63;28.10;;;;;;;;;;5098163;27;20035;-81
2022/12/14 06:02:16;;;;;;;44.05;28.67;;;;;;;;;;5134925;27;20045;-81
2022/12/14 06:04:42;;;;;;;43.78;29.70;;;;;;;;;;5134157;27;20462;-80
2022/12/14 06:07:10;;;;;;;46.47;30.40;;;;;;;;;;5134580;27;20046;-80
2022/12/14 06:09:36;;;;;;;49.58;32.85;;;;;;;;;;5136580;27;20031;-80
2022/12/14 06:12:03;;;;;;;68.25;40.40;;;;;;;;;;5155367;27;20755;-81
2022/12/14 06:14:29;;;;;;;50.50;32.58;;;;;;;;;;5127838;27;20047;-80
2022/12/14 06:16:55;;;;;;;55.10;37.35;;;;;;;;;;5133917;27;20382;-80
2022/12/14 06:19:21;;;;;;;49.80;34.10;;;;;;;;;;5134103;27;20050;-82
2022/12/14 06:21:47;;;;;;;56.50;33.42;;;;;;;;;;5151744;27;20027;-81
2022/12/14 06:24:14;;;;;;;67.85;39.33;;;;;;;;;;5155043;27;20461;-81
2022/12/14 06:26:40;;;;;;;78.28;42.65;;;;;;;;;;5153529;27;20038;-82
2022/12/14 06:29:07;;;;;;;68.80;39.55;;;;;;;;;;5138550;27;20085;-82
2022/12/14 06:31:33;;;;;;;103.07;55.40;;;;;;;;;;5118682;27;20031;-80
2022/12/14 06:34:01;;;;;;;117.13;60.67;;;;;;;;;;5121043;27;20027;-79
2022/12/14 06:36:34;;;;;;;65.70;36.95;;;;;;;;;;5131576;27;20058;-80
2022/12/14 06:39:01;;;;;;;83.97;47.65;;;;;;;;;;5132754;27;20075;-80
2022/12/14 06:41:28;;;;;;;69.82;40.78;;;;;;;;;;5146369;27;20034;-80
2022/12/14 06:43:55;;;;;;;64.47;37.95;;;;;;;;;;5133716;27;20378;-80
2022/12/14 06:46:22;;;;;;;83.55;50.85;;;;;;;;;;5132885;27;20035;-83
2022/12/14 06:48:49;;;;;;;90.47;48.42;;;;;;;;;;5133003;27;20362;-81
2022/12/14 06:51:15;;;;;;;91.95;54.17;;;;;;;;;;5116243;27;20031;-80
2022/12/14 06:53:42;;;;;;;159.45;111.75;;;;;;;;;;5113212;27;20023;-78
2022/12/14 06:56:09;;;;;;;79.38;53.72;;;;;;;;;;5131097;27;20035;-80
2022/12/14 06:58:36;;;;;;;48.22;31.58;;;;;;;;;;5133821;27;20027;-80
2022/12/14 07:01:07;;;;;;;39.42;27.77;;;;;;;;;;5115207;27;20057;-81
2022/12/14 07:03:33;;;;;;;25.08;18.02;;;;;;;;;;5112970;28;20027;-79
2022/12/14 07:06:00;;;;;;;26.02;18.40;;;;;;;;;;5112840;28;20111;-81
2022/12/14 07:08:27;;;;;;;36.05;22.17;;;;;;;;;;5113483;28;20037;-81
2022/12/14 07:10:53;;;;;;;27.08;19.15;;;;;;;;;;5112810;28;20111;-82
2022/12/14 07:13:23;;;;;;;25.90;16.48;;;;;;;;;;5112852;28;20042;-80
2022/12/14 07:16:07;;;;;;;21.98;16.27;;;;;;;;;;5117211;27;20063;-81
2022/12/14 07:18:35;;;;;;;22.30;15.35;;;;;;;;;;5123879;27;20047;-79
2022/12/14 07:21:04;;;;;;;22.10;14.75;;;;;;;;;;5112565;28;20038;-80
2022/12/14 07:23:36;;;;;;;72.28;32.42;;;;;;;;;;5119409;28;20103;-88
2022/12/14 07:26:10;;;;;;;83.25;35.42;;;;;;;;;;5132442;27;20031;-81
2022/12/14 07:28:36;;;;;;;136.32;74.10;;;;;;;;;;5132265;27;20477;-79
2022/12/14 07:31:03;;;;;;;119.78;50.00;;;;;;;;;;5128177;28;20098;-77
2022/12/14 07:33:29;;;;;;;96.80;44.65;;;;;;;;;;5127322;28;20473;-81
2022/12/14 07:36:06;;;;;;;111.68;47.88;;;;;;;;;;5132069;28;20027;-79
2022/12/14 07:38:32;;;;;;;66.32;33.50;;;;;;;;;;5126306;28;20031;-83
2022/12/14 07:41:07;;;;;;;139.77;78.57;;;;;;;;;;5103004;28;20686;-82
2022/12/14 07:43:33;;;;;;;125.32;68.57;;;;;;;;;;5132742;28;20079;-81
2022/12/14 07:46:00;;;;;;;88.18;50.20;;;;;;;;;;5126588;28;20023;-79
2022/12/14 07:48:26;;;;;;;52.53;37.28;;;;;;;;;;5129173;28;20050;-82
2022/12/14 07:50:53;;;;;;;31.10;23.67;;;;;;;;;;5133037;27;20389;-81
2022/12/14 07:53:20;;;;;;;34.75;21.65;;;;;;;;;;5117854;27;20362;-80
2022/12/14 07:55:46;;;;;;;20.65;15.60;;;;;;;;;;5132070;27;20019;-83
2022/12/14 07:58:12;;;;;;;23.67;15.55;;;;;;;;;;5136672;27;20109;-81
2022/12/14 08:00:38;;;;;;;146.30;109.07;;;;;;;;;;5118306;27;20035;-82
2022/12/14 08:03:05;;;;;;;48.42;35.55;;;;;;;;;;5115984;27;20336;-78
2022/12/14 08:05:36;;;;;;;27.92;19.50;;;;;;;;;;5129049;27;20022;-80
2022/12/14 08:08:03;;;;;;;18.60;14.10;;;;;;;;;;5111849;27;20510;-80
2022/12/14 08:10:29;;;;;;;18.58;13.20;;;;;;;;;;5140819;27;20111;-81
2022/12/14 08:12:55;;;;;;;75.10;53.42;;;;;;;;;;5154979;27;20031;-84
2022/12/14 08:15:21;;;;;;;50.47;35.95;;;;;;;;;;5132736;27;20398;-83
2022/12/14 08:17:47;;;;;;;34.47;27.88;;;;;;;;;;5114492;27;20447;-73
2022/12/14 08:20:13;;;;;;;19.40;14.38;;;;;;;;;;5134948;27;20029;-79
2022/12/14 08:22:39;;;;;;;17.52;13.30;;;;;;;;;;5133788;27;20062;-79
2022/12/14 08:25:06;;;;;;;15.77;12.43;;;;;;;;;;5132801;27;20035;-80
2022/12/14 08:27:35;;;;;;;18.55;12.75;;;;;;;;;;5139878;27;20126;-82
2022/12/14 08:30:01;;;;;;;16.75;12.27;;;;;;;;;;5115125;27;20364;-83
2022/12/14 08:32:27;;;;;;;28.52;18.00;;;;;;;;;;5130338;27;20035;-86
2022/12/14 08:34:53;;;;;;;18.40;12.70;;;;;;;;;;5131375;27;20076;-83
2022/12/14 08:37:19;;;;;;;18.55;11.13;;;;;;;;;;5131441;27;20031;-83
2022/12/14 08:39:46;;;;;;;15.55;11.02;;;;;;;;;;5135698;27;20031;-82
2022/12/14 08:42:12;;;;;;;16.02;10.88;;;;;;;;;;5136565;27;20030;-83
2022/12/14 08:44:38;;;;;;;14.30;10.43;;;;;;;;;;5103803;27;20457;-81
2022/12/14 08:47:04;;;;;;;19.88;12.10;;;;;;;;;;5136797;27;20130;-82
2022/12/14 08:49:30;;;;;;;16.98;10.90;;;;;;;;;;5096631;27;20375;-83
2022/12/14 08:51:56;;;;;;;23.35;13.82;;;;;;;;;;5117802;27;20023;-82
2022/12/14 08:54:23;;;;;;;225.95;102.32;;;;;;;;;;5133189;27;20393;-78
2022/12/14 08:56:49;;;;;;;190.25;91.32;;;;;;;;;;5133949;27;20023;-79
2022/12/14 08:59:15;;;;;;;187.85;81.20;;;;;;;;;;5144129;27;20022;-79
2022/12/14 09:01:41;;;;;;;112.07;46.63;;;;;;;;;;5154237;27;20550;-81
2022/12/14 09:04:08;;;;;;;31.13;16.38;;;;;;;;;;5137192;27;20031;-81
2022/12/14 09:06:36;;;;;;;27.75;15.98;;;;;;;;;;5118477;27;20046;-82
2022/12/14 09:09:02;;;;;;;70.63;39.65;;;;;;;;;;5100694;28;20398;-82
2022/12/14 09:11:28;;;;;;;39.35;20.05;;;;;;;;;;5115917;27;20035;-81
2022/12/14 09:13:54;;;;;;;21.45;12.57;;;;;;;;;;5116127;27;20025;-79
2022/12/14 09:16:21;;;;;;;40.40;18.88;;;;;;;;;;5134315;27;20091;-79
2022/12/14 09:18:49;;;;;;;36.45;17.05;;;;;;;;;;5134653;27;20110;-81
2022/12/14 09:21:16;;;;;;;37.75;16.70;;;;;;;;;;5134167;27;20388;-79
2022/12/14 09:23:43;;;;;;;19.67;12.10;;;;;;;;;;5131368;27;20033;-79
2022/12/14 09:26:19;;;;;;;18.30;11.40;;;;;;;;;;5131166;27;20034;-79
2022/12/14 09:28:47;;;;;;;32.03;15.00;;;;;;;;;;5097495;27;20031;-78
2022/12/14 09:31:14;;;;;;;31.33;16.25;;;;;;;;;;5124467;27;20443;-78
2022/12/14 09:33:40;;;;;;;15.93;10.18;;;;;;;;;;5124748;27;20050;-79
2022/12/14 09:36:07;;;;;;;29.60;13.35;;;;;;;;;;5126795;27;20035;-79
2022/12/14 09:38:34;;;;;;;224.98;81.35;;;;;;;;;;5122321;27;20042;-82
2022/12/14 09:41:19;;;;;;;258.52;86.18;;;;;;;;;;5128519;27;20139;-82
2022/12/14 09:43:48;;;;;;;;;;;;;;;;;;5111486;27;20061;-82
2022/12/14 09:46:14;;;;;;;139.07;50.10;;;;;;;;;;5131694;27;20460;-85
2022/12/14 09:48:41;;;;;;;97.63;35.28;;;;;;;;;;5129873;27;20030;-82
2022/12/14 09:51:11;;;;;;;68.35;27.55;;;;;;;;;;5113350;27;20561;-81
2022/12/14 09:53:37;;;;;;;12.77;9.02;;;;;;;;;;5130057;27;20034;-81
2022/12/14 09:56:05;;;;;;;11.57;8.60;;;;;;;;;;5126893;27;20382;-81
2022/12/14 09:58:33;;;;;;;14.50;9.65;;;;;;;;;;5128526;27;20483;-82
2022/12/14 10:01:15;;;;;;;12.48;8.18;;;;;;;;;;5114492;27;20027;-81
2022/12/14 10:03:47;;;;;;;62.45;42.97;;;;;;;;;;5131945;27;20466;-82
2022/12/14 10:06:32;;;;;;;19.77;14.00;;;;;;;;;;5133946;27;20027;-89
2022/12/14 10:09:17;;;;;;;10.50;8.43;;;;;;;;;;5125570;27;20080;-83
2022/12/14 10:11:43;;;;;;;13.77;9.73;;;;;;;;;;5124676;27;20098;-81
2022/12/14 10:14:15;;;;;;;14.65;9.07;;;;;;;;;;5112268;27;20092;-81
2022/12/14 10:16:48;;;;;;;16.38;11.00;;;;;;;;;;5127657;27;20031;-85
2022/12/14 10:19:33;;;;;;;15.18;10.93;;;;;;;;;;5132072;27;20027;-81
2022/12/14 10:22:17;;;;;;;14.70;11.23;;;;;;;;;;5124458;27;20039;-82
2022/12/14 10:24:45;;;;;;;15.05;9.85;;;;;;;;;;5112920;27;20113;-79
2022/12/14 10:27:17;;;;;;;11.75;8.70;;;;;;;;;;5127500;27;20123;-82
2022/12/14 10:30:00;;;;;;;15.30;9.57;;;;;;;;;;5095528;27;20035;-81
2022/12/14 10:32:31;;;;;;;11.10;7.93;;;;;;;;;;5112471;27;20467;-85
2022/12/14 10:35:02;;;;;;;35.10;17.55;;;;;;;;;;5127914;27;20035;-85
2022/12/14 10:37:35;;;;;;;12.68;8.50;;;;;;;;;;5126870;27;20466;-86
2022/12/14 10:40:19;;;;;;;12.70;8.20;;;;;;;;;;5130348;27;20023;-81
2022/12/14 10:42:55;;;;;;;13.00;8.98;;;;;;;;;;5106651;27;20023;-79
2022/12/14 10:45:28;;;;;;;15.23;10.98;;;;;;;;;;5131982;27;20107;-79
2022/12/14 10:48:00;;;;;;;14.38;8.63;;;;;;;;;;5129844;27;20393;-82
2022/12/14 10:50:36;;;;;;;13.02;8.73;;;;;;;;;;5132290;27;20562;-79
2022/12/14 10:53:02;;;;;;;12.00;8.90;;;;;;;;;;5132049;27;20030;-83
2022/12/14 10:55:37;;;;;;;15.07;9.18;;;;;;;;;;5110791;27;20023;-81
2022/12/14 10:58:04;;;;;;;12.25;7.78;;;;;;;;;;5110898;27;20383;-79
2022/12/14 11:00:33;;;;;;;7.75;6.95;;;;;;;;;;5113779;27;20030;-82
2022/12/14 11:03:05;;;;;;;9.73;7.88;;;;;;;;;;5110455;27;20023;-83
2022/12/14 11:05:48;;;;;;;10.90;8.48;;;;;;;;;;5107124;27;20118;-82
2022/12/14 11:08:34;;;;;;;7.47;6.57;;;;;;;;;;5102303;28;20046;-82
2022/12/14 11:11:08;;;;;;;27.42;18.02;;;;;;;;;;5100242;27;20100;-84
2022/12/14 11:13:34;;;;;;;11.87;9.03;;;;;;;;;;5126426;27;20023;-81
2022/12/14 11:16:14;;;;;;;17.27;9.60;;;;;;;;;;5116557;27;20531;-81
2022/12/14 11:18:40;;;;;;;12.55;8.80;;;;;;;;;;5110251;27;20470;-80
2022/12/14 11:21:07;;;;;;;10.93;7.43;;;;;;;;;;5104634;27;20398;-79
2022/12/14 11:23:51;;;;;;;16.38;11.80;;;;;;;;;;5120388;27;20023;-82
2022/12/14 11:26:27;;;;;;;11.32;8.77;;;;;;;;;;5126400;27;20062;-82
2022/12/14 11:28:55;;;;;;;16.25;8.20;;;;;;;;;;5127261;27;20110;-84
2022/12/14 11:31:23;;;;;;;27.90;12.50;;;;;;;;;;5130580;28;20019;-82
2022/12/14 11:33:49;;;;;;;23.02;12.68;;;;;;;;;;5131815;28;20026;-84
2022/12/14 11:36:41;;;;;;;17.45;9.32;;;;;;;;;;5106256;27;20043;-79
2022/12/14 11:39:14;;;;;;;23.25;9.95;;;;;;;;;;5127186;27;20092;-77
2022/12/14 11:41:59;;;;;;;16.15;8.43;;;;;;;;;;5133100;27;20039;-77
2022/12/14 11:44:26;;;;;;;10.02;7.40;;;;;;;;;;5126403;27;20115;-84
2022/12/14 11:46:55;;;;;;;22.83;10.15;;;;;;;;;;5125951;28;20574;-83
2022/12/14 11:49:21;;;;;;;23.10;9.93;;;;;;;;;;5126739;28;20062;-83
2022/12/14 11:51:54;;;;;;;10.77;7.10;;;;;;;;;;5124680;28;20031;-83
2022/12/14 11:54:20;;;;;;;26.83;12.15;;;;;;;;;;5122610;28;20039;-83
2022/12/14 11:56:48;;;;;;;17.35;8.35;;;;;;;;;;5124440;28;20023;-81
2022/12/14 11:59:16;;;;;;;24.52;11.00;;;;;;;;;;5125227;28;20038;-79
2022/12/14 12:01:42;;;;;;;182.63;63.95;;;;;;;;;;5121613;28;20041;-77
2022/12/14 12:04:12;;;;;;;304.27;99.25;;;;;;;;;;5122605;28;20122;-78
2022/12/14 12:06:39;;;;;;;26.67;11.18;;;;;;;;;;5103471;28;20035;-80
2022/12/14 12:09:17;;;;;;;23.02;9.77;;;;;;;;;;5121817;28;20023;-80
2022/12/14 12:11:44;;;;;;;32.13;16.90;;;;;;;;;;5123800;27;20436;-81
2022/12/14 12:14:29;;;;;;;45.75;19.23;;;;;;;;;;5136539;27;20033;-81
2022/12/14 12:16:56;;;;;;;38.95;18.95;;;;;;;;;;5125506;27;20023;-80
2022/12/14 12:19:29;;;;;;;17.98;8.50;;;;;;;;;;5122110;28;20044;-79
2022/12/14 12:21:59;;;;;;;473.38;150.95;;;;;;;;;;5111185;28;20451;-81
2022/12/14 12:25:00;;;;;;;392.55;128.63;;;;;;;;;;5119787;28;20109;-82
2022/12/14 12:27:27;;;;;;;224.63;80.15;;;;;;;;;;5057060;28;20048;-80
2022/12/14 12:30:02;;;;;;;101.03;38.60;;;;;;;;;;5151004;27;20054;-82
2022/12/14 12:32:46;;;;;;;9.38;6.07;;;;;;;;;;5138500;27;20023;-83
2022/12/14 12:35:18;;;;;;;9.00;6.13;;;;;;;;;;5132224;27;20027;-82
2022/12/14 12:37:49;;;;;;;10.70;6.00;;;;;;;;;;5135351;27;20089;-81
2022/12/14 12:40:18;;;;;;;5.82;4.82;;;;;;;;;;5126218;27;20027;-80
2022/12/14 12:42:49;;;;;;;7.75;5.10;;;;;;;;;;5131464;27;20520;-84
2022/12/14 12:45:22;;;;;;;7.47;5.95;;;;;;;;;;5119140;27;20469;-83
2022/12/14 12:48:07;;;;;;;6.82;5.35;;;;;;;;;;5128222;27;20085;-82
2022/12/14 12:50:35;;;;;;;9.82;5.95;;;;;;;;;;5126992;27;20035;-83
2022/12/14 12:53:06;;;;;;;5.65;4.85;;;;;;;;;;5116611;27;20015;-80
2022/12/14 12:55:35;;;;;;;13.73;6.65;;;;;;;;;;5131253;27;20557;-82
2022/12/14 12:58:02;;;;;;;8.55;5.40;;;;;;;;;;5135620;27;20088;-83
2022/12/14 13:00:29;;;;;;;9.93;6.25;;;;;;;;;;5122639;27;20039;-82
2022/12/14 13:03:21;;;;;;;5.63;3.78;;;;;;;;;;5120264;27;20023;-81
2022/12/14 13:05:47;;;;;;;7.65;5.07;;;;;;;;;;5089040;27;20092;-82
2022/12/14 13:08:28;;;;;;;8.00;5.13;;;;;;;;;;5134722;27;20072;-83
2022/12/14 13:10:55;;;;;;;27.40;20.05;;;;;;;;;;5132467;27;20597;-80
2022/12/14 13:13:24;;;;;;;42.38;29.05;;;;;;;;;;5133780;27;20445;-79
2022/12/14 13:15:52;;;;;;;35.75;14.38;;;;;;;;;;5132781;27;20104;-80
2022/12/14 13:18:21;;;;;;;21.73;10.38;;;;;;;;;;5113107;27;20381;-81
2022/12/14 13:20:48;;;;;;;9.07;6.13;;;;;;;;;;5109681;27;20020;-82
2022/12/14 13:23:18;;;;;;;33.17;14.95;;;;;;;;;;5113747;27;20027;-79
2022/12/14 13:25:53;;;;;;;8.93;5.20;;;;;;;;;;5134514;27;20023;-82
2022/12/14 13:28:19;;;;;;;4.82;4.13;;;;;;;;;;5114276;27;20561;-80
2022/12/14 13:30:50;;;;;;;7.45;4.80;;;;;;;;;;5134738;27;20127;-83
2022/12/14 13:33:35;;;;;;;8.20;6.05;;;;;;;;;;5134786;27;20027;-83
2022/12/14 13:36:04;;;;;;;;;;;;;;;;;;5132925;27;20087;-86
2022/12/14 13:38:30;;;;;;;7.72;5.15;;;;;;;;;;5110771;27;19949;-85
2022/12/14 13:41:15;;;;;;;7.25;5.28;;;;;;;;;;5129232;27;20139;-84
2022/12/14 13:44:00;;;;;;;18.77;16.92;;;;;;;;;;5109257;27;20027;-83
2022/12/14 13:46:34;;;;;;;9.13;6.38;;;;;;;;;;5110581;27;20067;-89
2022/12/14 13:49:04;;;;;;;10.90;5.68;;;;;;;;;;5099072;27;20035;-89
2022/12/14 13:51:31;;;;;;;11.63;5.68;;;;;;;;;;5109320;27;20039;-84
2022/12/14 13:53:59;;;;;;;23.70;8.90;;;;;;;;;;5123787;27;20032;-84
2022/12/14 13:56:28;;;;;;;23.42;11.35;;;;;;;;;;5079823;28;20020;-85
2022/12/14 13:58:55;;;;;;;31.58;11.65;;;;;;;;;;5125867;27;20027;-83
2022/12/14 14:01:46;;;;;;;20.52;8.13;;;;;;;;;;5126591;27;20095;-81
2022/12/14 14:04:12;;;;;;;9.05;7.15;;;;;;;;;;5102317;27;20028;-83
2022/12/14 14:06:43;;;;;;;13.15;6.45;;;;;;;;;;5107459;28;20033;-82
2022/12/14 14:09:28;;;;;;;9.52;5.40;;;;;;;;;;5121769;27;20019;-83
2022/12/14 14:11:54;;;;;;;;;;;;;;;;;;5116051;27;20102;-83
2022/12/14 14:14:21;;;;;;;25.17;8.80;;;;;;;;;;5134554;27;19915;-83
2022/12/14 14:16:50;;;;;;;16.38;5.85;;;;;;;;;;5134472;27;20027;-83
2022/12/14 14:19:16;;;;;;;9.98;5.68;;;;;;;;;;5126215;27;20024;-82
2022/12/14 14:22:02;;;;;;;5.47;3.60;;;;;;;;;;5113735;28;20035;-85
2022/12/14 14:24:28;;;;;;;19.98;9.63;;;;;;;;;;5129201;27;20041;-82
2022/12/14 14:27:21;;;;;;;11.77;5.03;;;;;;;;;;5133050;27;20027;-82
2022/12/14 14:29:48;;;;;;;14.65;6.97;;;;;;;;;;5130664;27;20418;-81
2022/12/14 14:32:32;;;;;;;9.93;5.90;;;;;;;;;;5115768;27;20019;-84
2022/12/14 14:35:00;;;;;;;14.40;5.95;;;;;;;;;;5115346;27;20019;-86
2022/12/14 14:37:33;;;;;;;12.45;5.90;;;;;;;;;;5135155;27;20019;-84
2022/12/14 14:40:02;;;;;;;9.95;6.65;;;;;;;;;;5114054;27;20039;-85
2022/12/14 14:42:29;;;;;;;15.52;5.55;;;;;;;;;;5105246;28;20080;-86
2022/12/14 14:45:03;;;;;;;9.18;4.45;;;;;;;;;;5095894;28;20531;-84
2022/12/14 14:47:31;;;;;;;9.93;4.70;;;;;;;;;;5117821;27;20106;-84
2022/12/14 14:49:59;;;;;;;4.88;3.40;;;;;;;;;;5111946;27;20023;-76
2022/12/14 14:52:44;;;;;;;7.38;4.38;;;;;;;;;;5132570;27;20023;-85
2022/12/14 14:55:29;;;;;;;6.82;3.50;;;;;;;;;;5117510;27;20103;-84
2022/12/14 14:58:03;;;;;;;7.72;3.78;;;;;;;;;;5113547;27;20542;-84
2022/12/14 15:00:30;;;;;;;14.77;6.85;;;;;;;;;;5115103;27;20023;-83